createdAt,value
2023-07-05T00:00:47.641Z,3.23
2023-07-05T00:03:15.717Z,3.00
2023-07-05T00:05:44.564Z,2.80
2023-07-05T00:08:12.149Z,3.33
2023-07-05T00:10:39.592Z,2.90
2023-07-05T00:13:07.328Z,3.27
2023-07-05T00:15:34.994Z,3.13
2023-07-05T00:18:03.101Z,3.40
2023-07-05T00:20:30.609Z,3.00
2023-07-05T00:22:59.505Z,3.00
2023-07-05T00:25:27.292Z,3.13
2023-07-05T00:27:54.729Z,3.40
2023-07-05T00:30:22.204Z,3.00
2023-07-05T00:32:49.717Z,3.20
2023-07-05T00:35:17.194Z,3.20
2023-07-05T00:37:44.816Z,3.37
2023-07-05T00:40:14.234Z,3.17
2023-07-05T00:42:41.727Z,2.63
2023-07-05T00:45:30.036Z,2.73
2023-07-05T00:47:57.571Z,3.03
2023-07-05T00:50:26.257Z,2.90
2023-07-05T00:52:55.025Z,2.60
2023-07-05T00:55:24.034Z,2.77
2023-07-05T00:57:51.778Z,2.70
2023-07-05T01:00:20.727Z,2.70
2023-07-05T01:02:50.697Z,2.70
2023-07-05T01:05:19.139Z,2.53
2023-07-05T01:07:47.998Z,2.90
2023-07-05T01:10:18.252Z,2.93
2023-07-05T01:12:48.114Z,2.80
2023-07-05T01:15:17.064Z,2.60
2023-07-05T01:17:49.287Z,2.70
2023-07-05T01:20:25.628Z,3.30
2023-07-05T01:23:09.345Z,2.53
2023-07-05T01:26:04.042Z,2.70
2023-07-05T01:28:43.776Z,2.70
2023-07-05T01:31:29.025Z,2.37
2023-07-05T01:34:00.306Z,2.40
2023-07-05T01:36:28.828Z,2.30
2023-07-05T01:38:56.312Z,2.50
2023-07-05T01:41:23.840Z,2.43
2023-07-05T01:43:51.933Z,2.60
2023-07-05T01:46:23.470Z,2.63
2023-07-05T01:48:58.171Z,2.73
2023-07-05T01:51:31.715Z,2.27
2023-07-05T01:54:02.809Z,2.70
2023-07-05T01:56:33.189Z,2.70
2023-07-05T01:59:02.418Z,2.50
2023-07-05T02:01:30.262Z,2.47
2023-07-05T02:03:57.851Z,2.33
2023-07-05T02:06:25.321Z,2.33
2023-07-05T02:08:55.034Z,2.40
2023-07-05T02:11:23.857Z,2.30
2023-07-05T02:13:51.439Z,2.20
2023-07-05T02:16:18.921Z,2.17
2023-07-05T02:18:46.411Z,2.70
2023-07-05T02:21:13.979Z,2.10
2023-07-05T02:23:41.438Z,2.17
2023-07-05T02:26:10.224Z,2.30
2023-07-05T02:28:37.704Z,2.20
2023-07-05T02:31:06.812Z,2.33
2023-07-05T02:33:35.644Z,2.27
2023-07-05T02:36:08.635Z,2.60
2023-07-05T02:38:36.403Z,2.77
2023-07-05T02:41:03.954Z,2.57
2023-07-05T02:43:32.797Z,2.80
2023-07-05T02:46:00.270Z,3.10
2023-07-05T02:48:27.873Z,2.73
2023-07-05T02:50:55.304Z,3.50
2023-07-05T02:53:22.710Z,3.20
2023-07-05T02:55:51.099Z,3.10
2023-07-05T02:58:18.848Z,3.00
2023-07-05T03:00:47.623Z,2.57
2023-07-05T03:03:15.058Z,2.60
2023-07-05T03:05:42.495Z,2.67
2023-07-05T03:08:10.178Z,2.50
2023-07-05T03:10:40.787Z,2.40
2023-07-05T03:13:08.312Z,2.47
2023-07-05T03:15:35.849Z,2.43
2023-07-05T03:18:07.158Z,2.53
2023-07-05T03:20:34.635Z,2.53
2023-07-05T03:23:02.309Z,2.43
2023-07-05T03:25:29.764Z,2.40
2023-07-05T03:27:57.289Z,2.20
2023-07-05T03:30:26.134Z,2.37
2023-07-05T03:32:53.631Z,2.20
2023-07-05T03:35:22.499Z,2.40
2023-07-05T03:37:49.972Z,1.83
2023-07-05T03:40:17.580Z,1.90
2023-07-05T03:42:44.996Z,1.80
2023-07-05T03:45:12.503Z,1.80
2023-07-05T03:47:40.052Z,1.50
2023-07-05T03:50:10.528Z,1.80
2023-07-05T03:52:39.386Z,1.40
2023-07-05T03:55:10.090Z,1.47
2023-07-05T03:57:37.498Z,1.70
2023-07-05T04:00:07.776Z,1.83
2023-07-05T04:02:35.334Z,1.57
2023-07-05T04:05:02.828Z,1.63
2023-07-05T04:07:30.551Z,1.60
2023-07-05T04:10:01.142Z,1.90
2023-07-05T04:12:28.966Z,1.60
2023-07-05T04:14:56.401Z,1.87
2023-07-05T04:17:23.887Z,1.63
2023-07-05T04:19:51.340Z,1.60
2023-07-05T04:22:19.059Z,1.53
2023-07-05T04:24:46.563Z,1.50
2023-07-05T04:27:15.557Z,1.70
2023-07-05T04:29:43.050Z,1.57
2023-07-05T04:32:10.620Z,1.70
2023-07-05T04:34:41.283Z,2.23
2023-07-05T04:37:08.830Z,2.07
2023-07-05T04:39:37.029Z,2.20
2023-07-05T04:42:04.917Z,2.10
2023-07-05T04:44:33.872Z,1.80
2023-07-05T04:47:01.593Z,2.03
2023-07-05T04:49:31.356Z,2.07
2023-07-05T04:51:58.791Z,1.80
2023-07-05T04:54:26.187Z,1.83
2023-07-05T04:56:53.616Z,1.67
2023-07-05T04:59:23.085Z,2.00
2023-07-05T05:01:52.057Z,1.60
2023-07-05T05:04:19.605Z,1.60
2023-07-05T05:06:47.025Z,2.00
2023-07-05T05:09:14.448Z,2.20
2023-07-05T05:11:41.870Z,1.80
2023-07-05T05:14:09.408Z,2.00
2023-07-05T05:16:36.895Z,2.07
2023-07-05T05:19:05.686Z,2.07
2023-07-05T05:21:33.147Z,2.00
2023-07-05T05:24:00.673Z,2.00
2023-07-05T05:26:28.182Z,2.00
2023-07-05T05:28:55.627Z,1.90
2023-07-05T05:31:23.082Z,1.97
2023-07-05T05:33:50.623Z,2.47
2023-07-05T05:36:19.404Z,2.13
2023-07-05T05:38:46.857Z,2.27
2023-07-05T05:41:14.300Z,2.50
2023-07-05T05:43:42.011Z,2.57
2023-07-05T05:46:12.422Z,2.90
2023-07-05T05:48:41.589Z,2.90
2023-07-05T05:51:09.059Z,3.00
2023-07-05T05:53:37.808Z,3.03
2023-07-05T05:56:05.484Z,3.03
2023-07-05T05:58:32.894Z,2.80
2023-07-05T06:01:01.600Z,2.60
2023-07-05T06:03:29.169Z,2.70
2023-07-05T06:05:56.876Z,2.70
2023-07-05T06:08:24.375Z,3.33
2023-07-05T06:10:57.639Z,2.70
2023-07-05T06:13:25.155Z,2.70
2023-07-05T06:16:11.511Z,2.80
2023-07-05T06:18:44.250Z,2.60
2023-07-05T06:21:12.485Z,2.73
2023-07-05T06:23:39.957Z,3.10
2023-07-05T06:26:09.064Z,3.13
2023-07-05T06:28:36.466Z,2.70
2023-07-05T06:31:07.789Z,2.30
2023-07-05T06:33:35.501Z,1.90
2023-07-05T06:36:03.332Z,1.97
2023-07-05T06:38:31.381Z,2.10
2023-07-05T06:40:58.911Z,2.17
2023-07-05T06:43:28.440Z,2.13
2023-07-05T06:45:56.649Z,2.23
2023-07-05T06:48:24.662Z,2.30
2023-07-05T06:50:52.888Z,2.07
2023-07-05T06:53:38.162Z,2.53
2023-07-05T06:56:10.658Z,2.03
2023-07-05T06:58:39.484Z,2.23
2023-07-05T07:01:06.940Z,1.63
2023-07-05T07:03:34.617Z,1.80
2023-07-05T07:06:02.022Z,1.70
2023-07-05T07:08:30.565Z,1.90
2023-07-05T07:11:00.706Z,1.70
2023-07-05T07:13:28.639Z,1.80
2023-07-05T07:16:04.533Z,1.60
2023-07-05T07:18:32.055Z,2.20
2023-07-05T07:21:00.471Z,1.70
2023-07-05T07:23:27.896Z,1.80
2023-07-05T07:26:02.095Z,2.20
2023-07-05T07:28:29.515Z,1.80
2023-07-05T07:30:57.154Z,1.80
2023-07-05T07:33:26.187Z,2.00
2023-07-05T07:35:53.644Z,1.83
2023-07-05T07:38:21.060Z,1.73
2023-07-05T07:40:48.481Z,1.80
2023-07-05T07:43:15.857Z,1.40
2023-07-05T07:45:43.298Z,1.53
2023-07-05T07:48:10.755Z,1.97
2023-07-05T07:50:39.503Z,1.80
2023-07-05T07:53:06.949Z,1.40
2023-07-05T07:55:34.401Z,1.60
2023-07-05T07:58:03.413Z,1.20
2023-07-05T08:00:31.773Z,1.60
2023-07-05T08:02:59.222Z,1.40
2023-07-05T08:05:27.187Z,1.50
2023-07-05T08:07:56.387Z,1.23
2023-07-05T08:10:23.852Z,1.40
2023-07-05T08:12:51.252Z,1.13
2023-07-05T08:15:18.710Z,1.27
2023-07-05T08:17:46.129Z,1.20
2023-07-05T08:20:14.605Z,1.40
2023-07-05T08:22:42.069Z,1.37
2023-07-05T08:25:11.107Z,1.40
2023-07-05T08:27:38.486Z,1.30
2023-07-05T08:30:06.563Z,1.27
2023-07-05T08:32:34.517Z,1.40
2023-07-05T08:35:03.101Z,1.40
2023-07-05T08:37:31.343Z,1.53
2023-07-05T08:39:58.748Z,1.20
2023-07-05T08:42:31.769Z,1.20
2023-07-05T08:45:02.772Z,1.47
2023-07-05T08:47:33.336Z,1.30
2023-07-05T08:50:22.259Z,1.10
2023-07-05T08:52:57.640Z,1.17
2023-07-05T08:55:26.963Z,1.60
2023-07-05T08:57:56.623Z,1.33
2023-07-05T09:00:26.450Z,1.30
2023-07-05T09:02:54.024Z,1.60
2023-07-05T09:05:24.024Z,1.20
2023-07-05T09:07:57.708Z,1.30
2023-07-05T09:10:29.537Z,1.40
2023-07-05T09:13:03.199Z,1.20
2023-07-05T09:15:34.041Z,1.20
2023-07-05T09:18:03.424Z,1.40
2023-07-05T09:20:45.441Z,1.33
2023-07-05T09:23:16.286Z,1.47
2023-07-05T09:25:55.135Z,1.50
2023-07-05T09:28:26.888Z,1.50
2023-07-05T09:30:54.779Z,1.23
2023-07-05T09:33:24.632Z,1.30
2023-07-05T09:35:52.487Z,1.20
2023-07-05T09:38:22.776Z,1.50
2023-07-05T09:40:52.677Z,1.17
2023-07-05T09:43:25.553Z,1.27
2023-07-05T09:45:54.606Z,1.20
2023-07-05T09:48:22.232Z,1.33
2023-07-05T09:50:50.846Z,1.20
2023-07-05T09:53:37.414Z,1.20
2023-07-05T09:56:07.042Z,1.30
2023-07-05T09:58:35.337Z,1.33
2023-07-05T10:01:05.848Z,1.20
2023-07-05T10:03:37.361Z,1.27
2023-07-05T10:06:08.733Z,1.30
2023-07-05T10:08:44.184Z,1.50
2023-07-05T10:11:21.053Z,1.50
2023-07-05T10:13:50.175Z,1.70
2023-07-05T10:16:18.960Z,1.27
2023-07-05T10:18:46.536Z,1.20
2023-07-05T10:21:19.660Z,1.30
2023-07-05T10:23:48.016Z,1.40
2023-07-05T10:26:18.528Z,1.40
2023-07-05T10:28:47.333Z,1.40
2023-07-05T10:31:28.330Z,1.50
2023-07-05T10:34:05.504Z,1.37
2023-07-05T10:36:33.006Z,1.20
2023-07-05T10:39:01.803Z,1.80
2023-07-05T10:41:33.017Z,1.67
2023-07-05T10:44:02.908Z,1.30
2023-07-05T10:46:32.606Z,1.10
2023-07-05T10:49:00.863Z,1.60
2023-07-05T10:51:31.404Z,1.27
2023-07-05T10:54:05.516Z,1.40
2023-07-05T10:56:34.667Z,1.57
2023-07-05T10:59:05.550Z,1.47
2023-07-05T11:01:36.605Z,1.50
2023-07-05T11:04:06.766Z,1.40
2023-07-05T11:06:35.025Z,1.40
2023-07-05T11:09:05.899Z,1.70
2023-07-05T11:11:39.536Z,1.37
2023-07-05T11:14:13.222Z,1.90
2023-07-05T11:16:43.555Z,1.40
2023-07-05T11:19:13.221Z,1.50
2023-07-05T11:21:41.494Z,1.30
2023-07-05T11:24:09.751Z,1.50
2023-07-05T11:26:39.527Z,1.73
2023-07-05T11:29:26.014Z,1.40
2023-07-05T11:32:03.043Z,1.67
2023-07-05T11:34:34.222Z,1.30
2023-07-05T11:37:16.542Z,1.50
2023-07-05T11:39:44.686Z,1.50
2023-07-05T11:42:30.804Z,1.70
2023-07-05T11:45:14.520Z,1.53
2023-07-05T11:47:47.563Z,1.70
2023-07-05T11:50:16.143Z,1.83
2023-07-05T11:52:45.147Z,2.03
2023-07-05T11:55:13.930Z,1.47
2023-07-05T11:57:43.370Z,1.57
2023-07-05T12:00:15.726Z,1.70
2023-07-05T12:02:56.179Z,1.70
2023-07-05T12:05:26.082Z,1.57
2023-07-05T12:07:56.421Z,1.63
2023-07-05T12:10:26.791Z,1.57
2023-07-05T12:12:54.291Z,2.00
2023-07-05T12:15:21.896Z,1.80
2023-07-05T12:17:49.392Z,1.97
2023-07-05T12:20:26.981Z,1.90
2023-07-05T12:22:54.468Z,2.20
2023-07-05T12:25:21.927Z,1.80
2023-07-05T12:27:49.774Z,1.70
2023-07-05T12:30:19.491Z,2.00
2023-07-05T12:32:49.677Z,1.80
2023-07-05T12:35:19.007Z,1.97
2023-07-05T12:37:48.429Z,1.93
2023-07-05T12:40:20.876Z,1.70
2023-07-05T12:42:49.455Z,1.63
2023-07-05T12:45:18.215Z,2.23
2023-07-05T12:47:45.762Z,2.00
2023-07-05T12:50:13.224Z,2.00
2023-07-05T12:52:42.594Z,3.00
2023-07-05T12:58:02.934Z,1.90
2023-07-05T13:00:30.630Z,1.60
2023-07-05T13:03:01.819Z,1.90
2023-07-05T13:05:30.743Z,2.00
2023-07-05T13:08:02.256Z,1.70
2023-07-05T13:10:30.085Z,1.80
2023-07-05T13:12:59.587Z,1.70
2023-07-05T13:15:35.229Z,2.00
2023-07-05T13:18:15.637Z,1.93
2023-07-05T13:20:43.917Z,1.67
2023-07-05T13:23:11.427Z,1.53
2023-07-05T13:25:45.921Z,1.70
2023-07-05T13:28:20.669Z,1.60
2023-07-05T13:30:55.844Z,1.70
2023-07-05T13:33:23.566Z,1.57
2023-07-05T13:35:51.153Z,1.80
2023-07-05T13:38:18.813Z,1.83
2023-07-05T13:40:53.487Z,1.60
2023-07-05T13:43:21.087Z,1.60
2023-07-05T13:45:48.682Z,1.60
2023-07-05T13:48:17.717Z,1.60
2023-07-05T13:50:45.972Z,1.20
2023-07-05T13:53:18.326Z,1.70
2023-07-05T13:55:45.778Z,1.60
2023-07-05T13:58:14.762Z,1.80
2023-07-05T14:00:43.029Z,1.80
2023-07-05T14:03:10.553Z,1.53
2023-07-05T14:05:40.373Z,1.73
2023-07-05T14:08:08.758Z,1.50
2023-07-05T14:10:36.916Z,1.57
2023-07-05T14:13:04.395Z,1.60
2023-07-05T14:15:35.986Z,1.57
2023-07-05T14:18:03.975Z,1.30
2023-07-05T14:20:33.065Z,1.43
2023-07-05T14:23:02.553Z,1.30
2023-07-05T14:25:30.704Z,1.40
2023-07-05T14:27:58.867Z,1.60
2023-07-05T14:30:26.472Z,1.30
2023-07-05T14:32:54.819Z,1.37
2023-07-05T14:35:23.494Z,1.30
2023-07-05T14:37:51.387Z,1.30
2023-07-05T14:40:21.912Z,1.33
2023-07-05T14:42:49.375Z,1.53
2023-07-05T14:45:18.444Z,1.30
2023-07-05T14:47:51.691Z,1.60
2023-07-05T14:50:19.460Z,1.53
2023-07-05T14:52:47.439Z,1.23
2023-07-05T14:55:15.900Z,1.40
2023-07-05T14:57:44.754Z,1.20
2023-07-05T15:00:13.275Z,1.50
2023-07-05T15:02:42.539Z,1.40
2023-07-05T15:05:10.420Z,1.50
2023-07-05T15:07:37.925Z,1.57
2023-07-05T15:10:08.643Z,1.73
2023-07-05T15:12:39.465Z,1.67
2023-07-05T15:15:15.321Z,1.90
2023-07-05T15:17:42.799Z,1.93
2023-07-05T15:20:12.998Z,1.80
2023-07-05T15:22:40.473Z,1.83
2023-07-05T15:25:10.864Z,1.70
2023-07-05T15:27:38.375Z,1.83
2023-07-05T15:30:07.570Z,1.53
2023-07-05T15:32:37.907Z,1.83
2023-07-05T15:35:07.918Z,1.70
2023-07-05T15:37:35.827Z,2.00
2023-07-05T15:40:06.052Z,2.03
2023-07-05T15:42:33.456Z,1.50
2023-07-05T15:45:01.204Z,1.80
2023-07-05T15:47:29.287Z,1.80
2023-07-05T15:49:58.421Z,1.87
2023-07-05T15:52:25.921Z,2.00
2023-07-05T15:54:53.352Z,2.00
2023-07-05T15:57:20.851Z,1.77
2023-07-05T15:59:58.193Z,1.40
2023-07-05T16:02:26.912Z,1.50
2023-07-05T16:04:54.478Z,1.40
2023-07-05T16:07:23.696Z,1.40
2023-07-05T16:09:51.331Z,1.30
2023-07-05T16:12:19.251Z,1.10
2023-07-05T16:14:48.675Z,1.40
2023-07-05T16:17:16.401Z,1.50
2023-07-05T16:19:45.616Z,1.10
2023-07-05T16:22:13.382Z,1.27
2023-07-05T16:24:42.094Z,1.43
2023-07-05T16:27:09.498Z,1.50
2023-07-05T16:29:37.127Z,1.60
2023-07-05T16:32:07.636Z,1.50
2023-07-05T16:34:35.431Z,1.37
2023-07-05T16:37:02.825Z,1.33
2023-07-05T16:39:30.373Z,1.50
2023-07-05T16:41:59.161Z,1.43
2023-07-05T16:44:27.574Z,1.70
2023-07-05T16:46:56.947Z,1.47
2023-07-05T16:49:24.496Z,1.50
2023-07-05T16:51:51.998Z,2.37
2023-07-05T16:54:19.412Z,1.43
2023-07-05T16:56:46.850Z,1.50
2023-07-05T16:59:15.674Z,1.47
2023-07-05T17:01:43.084Z,1.50
2023-07-05T17:04:11.519Z,1.50
2023-07-05T17:06:39.220Z,1.40
2023-07-05T17:09:06.807Z,1.50
2023-07-05T17:11:34.203Z,1.60
2023-07-05T17:14:01.626Z,1.70
2023-07-05T17:16:30.488Z,1.60
2023-07-05T17:18:58.247Z,1.47
2023-07-05T17:21:25.957Z,1.53
2023-07-05T17:23:53.382Z,1.60
2023-07-05T17:26:20.749Z,1.60
2023-07-05T17:28:48.223Z,1.60
2023-07-05T17:31:16.783Z,1.70
2023-07-05T17:33:45.694Z,2.03
2023-07-05T17:36:13.990Z,1.63
2023-07-05T17:38:42.472Z,1.40
2023-07-05T17:41:10.561Z,1.70
2023-07-05T17:43:38.001Z,2.00
2023-07-05T17:46:18.608Z,1.40
2023-07-05T17:48:47.408Z,1.60
2023-07-05T17:51:14.879Z,1.50
2023-07-05T17:53:42.433Z,1.67
2023-07-05T17:56:12.322Z,1.67
2023-07-05T17:58:40.938Z,1.53
2023-07-05T18:01:10.291Z,1.60
2023-07-05T18:03:37.875Z,1.73
2023-07-05T18:06:07.337Z,1.60
2023-07-05T18:08:34.818Z,1.60
2023-07-05T18:11:03.079Z,1.80
2023-07-05T18:13:31.932Z,1.90
2023-07-05T18:16:00.121Z,1.60
2023-07-05T18:18:28.347Z,1.40
2023-07-05T18:20:55.948Z,1.70
2023-07-05T18:23:25.233Z,1.53
2023-07-05T18:25:53.222Z,1.67
2023-07-05T18:28:21.511Z,1.60
2023-07-05T18:30:49.421Z,1.50
2023-07-05T18:33:17.524Z,1.70
2023-07-05T18:35:49.179Z,1.73
2023-07-05T18:38:16.918Z,1.60
2023-07-05T18:40:46.359Z,1.60
2023-07-05T18:43:14.923Z,1.60
2023-07-05T18:45:43.504Z,1.60
2023-07-05T18:48:12.657Z,1.50
2023-07-05T18:50:40.296Z,1.47
2023-07-05T18:53:08.010Z,1.70
2023-07-05T18:55:35.760Z,1.70
2023-07-05T18:58:05.318Z,1.80
2023-07-05T19:00:32.820Z,1.50
2023-07-05T19:03:00.532Z,1.53
2023-07-05T19:05:28.576Z,1.50
2023-07-05T19:07:56.282Z,1.90
2023-07-05T19:10:23.761Z,1.50
2023-07-05T19:12:51.221Z,1.80
2023-07-05T19:15:20.006Z,1.53
2023-07-05T19:17:48.196Z,1.50
2023-07-05T19:20:15.988Z,1.63
2023-07-05T19:22:43.503Z,1.63
2023-07-05T19:25:11.599Z,1.60
2023-07-05T19:27:39.177Z,1.63
2023-07-05T19:30:09.110Z,1.90
2023-07-05T19:32:38.439Z,1.63
2023-07-05T19:35:06.298Z,1.60
2023-07-05T19:37:33.919Z,1.63
2023-07-05T19:40:01.317Z,1.53
2023-07-05T19:42:28.803Z,1.60
2023-07-05T19:44:56.210Z,1.77
2023-07-05T19:47:23.732Z,1.73
2023-07-05T19:49:52.683Z,1.80
2023-07-05T19:52:20.287Z,1.90
2023-07-05T19:54:47.765Z,1.47
2023-07-05T19:57:15.194Z,1.80
2023-07-05T19:59:43.054Z,1.87
2023-07-05T20:02:11.800Z,1.80
2023-07-05T20:04:39.433Z,1.90
2023-07-05T20:07:08.714Z,1.80
2023-07-05T20:09:36.324Z,1.80
2023-07-05T20:12:04.025Z,1.80
2023-07-05T20:14:31.555Z,2.00
2023-07-05T20:16:59.059Z,1.60
2023-07-05T20:19:26.529Z,1.73
2023-07-05T20:21:54.627Z,1.67
2023-07-05T20:24:23.698Z,2.10
2023-07-05T20:26:51.141Z,1.90
2023-07-05T20:29:18.693Z,1.80
2023-07-05T20:31:46.972Z,1.90
2023-07-05T20:34:15.841Z,1.90
2023-07-05T20:36:44.159Z,1.80
2023-07-05T20:39:12.045Z,1.90
2023-07-05T20:41:40.899Z,1.40
2023-07-05T20:44:10.086Z,1.20
2023-07-05T20:46:37.852Z,1.30
2023-07-05T20:49:05.324Z,1.20
2023-07-05T20:51:33.393Z,1.13
2023-07-05T20:54:01.685Z,1.27
2023-07-05T20:56:29.889Z,1.10
2023-07-05T20:58:59.344Z,1.30
2023-07-05T21:01:26.933Z,1.10
2023-07-05T21:03:54.930Z,1.20
2023-07-05T21:06:22.550Z,1.23
2023-07-05T21:08:50.031Z,1.40
2023-07-05T21:11:17.975Z,1.50
2023-07-05T21:13:45.678Z,1.50
2023-07-05T21:16:14.630Z,1.50
2023-07-05T21:18:42.339Z,1.20
2023-07-05T21:21:10.493Z,1.50
2023-07-05T21:23:37.961Z,1.50
2023-07-05T21:26:06.812Z,1.70
2023-07-05T21:28:34.410Z,1.77
2023-07-05T21:31:02.774Z,1.53
2023-07-05T21:33:32.271Z,1.43
2023-07-05T21:36:00.098Z,1.60
2023-07-05T21:38:28.819Z,1.67
2023-07-05T21:40:57.190Z,2.00
2023-07-05T21:43:26.244Z,1.60
2023-07-05T21:45:54.700Z,1.63
2023-07-05T21:48:28.979Z,1.77
2023-07-05T21:50:58.437Z,1.57
2023-07-05T21:53:25.857Z,1.70
2023-07-05T21:55:57.208Z,1.80
2023-07-05T21:58:27.682Z,1.70
2023-07-05T22:00:55.097Z,1.50
2023-07-05T22:03:22.593Z,1.73
2023-07-05T22:05:52.692Z,1.50
2023-07-05T22:08:23.038Z,1.80
2023-07-05T22:10:50.659Z,1.50
2023-07-05T22:13:20.403Z,1.80
2023-07-05T22:15:48.199Z,1.93
2023-07-05T22:18:16.743Z,1.97
2023-07-05T22:20:45.564Z,2.30
2023-07-05T22:23:12.983Z,1.70
2023-07-05T22:25:42.664Z,1.80
2023-07-05T22:28:10.142Z,2.03
2023-07-05T22:30:37.625Z,1.80
2023-07-05T22:33:05.287Z,1.80
2023-07-05T22:35:34.497Z,1.90
2023-07-05T22:38:02.104Z,1.80
2023-07-05T22:40:30.508Z,1.60
2023-07-05T22:42:59.755Z,2.03
2023-07-05T22:45:27.299Z,2.20
2023-07-05T22:47:54.850Z,1.83
2023-07-05T22:50:22.342Z,2.00
2023-07-05T22:52:51.504Z,1.60
2023-07-05T22:55:18.978Z,1.93
2023-07-05T22:57:46.380Z,1.90
2023-07-05T23:00:18.752Z,2.10
2023-07-05T23:02:46.636Z,2.00
2023-07-05T23:05:14.565Z,1.60
2023-07-05T23:07:42.068Z,1.63
2023-07-05T23:10:09.837Z,1.80
2023-07-05T23:12:37.298Z,2.20
2023-07-05T23:15:07.990Z,2.03
2023-07-05T23:17:36.913Z,1.83
2023-07-05T23:20:09.461Z,1.70
2023-07-05T23:22:37.058Z,1.50
2023-07-05T23:25:04.507Z,1.63
2023-07-05T23:27:32.024Z,2.00
2023-07-05T23:30:00.765Z,2.30
2023-07-05T23:32:29.383Z,1.70
2023-07-05T23:34:58.280Z,1.63
2023-07-05T23:37:25.678Z,1.80
2023-07-05T23:39:53.129Z,1.70
2023-07-05T23:42:20.846Z,2.00
2023-07-05T23:44:49.875Z,1.70
2023-07-05T23:47:17.724Z,1.80
2023-07-05T23:49:46.429Z,2.27
2023-07-05T23:52:16.276Z,1.80
2023-07-05T23:54:44.849Z,1.60
2023-07-05T23:57:12.257Z,1.80
2023-07-05T23:59:39.869Z,2.00
